createdAt,value
2022-07-27T00:00:54.945Z,18.30
2022-07-27T00:03:23.350Z,18.20
2022-07-27T00:05:50.735Z,18.10
2022-07-27T00:08:20.397Z,18.20
2022-07-27T00:10:47.851Z,18.10
2022-07-27T00:13:14.800Z,18.20
2022-07-27T00:15:42.202Z,18.20
2022-07-27T00:18:10.619Z,18.20
2022-07-27T00:20:37.537Z,18.20
2022-07-27T00:23:04.479Z,18.20
2022-07-27T00:25:31.385Z,18.20
2022-07-27T00:27:58.531Z,18.20
2022-07-27T00:30:26.209Z,18.10
2022-07-27T00:32:53.384Z,18.00
2022-07-27T00:35:21.592Z,17.90
2022-07-27T00:37:48.489Z,18.00
2022-07-27T00:40:15.730Z,18.00
2022-07-27T00:42:42.713Z,18.00
2022-07-27T00:45:09.961Z,17.90
2022-07-27T00:47:36.876Z,17.90
2022-07-27T00:50:04.423Z,17.90
2022-07-27T00:52:32.690Z,17.90
2022-07-27T00:54:59.778Z,17.90
2022-07-27T00:57:27.971Z,17.90
2022-07-27T00:59:54.893Z,17.80
2022-07-27T01:02:23.106Z,17.80
2022-07-27T01:04:50.305Z,17.70
2022-07-27T01:07:21.520Z,17.70
2022-07-27T01:09:58.735Z,17.70
2022-07-27T01:12:26.750Z,17.70
2022-07-27T01:14:54.370Z,17.60
2022-07-27T01:17:21.410Z,17.70
2022-07-27T01:19:48.501Z,17.70
2022-07-27T01:22:16.835Z,17.70
2022-07-27T01:24:43.912Z,17.60
2022-07-27T01:27:10.815Z,17.60
2022-07-27T01:29:37.988Z,17.60
2022-07-27T01:32:05.252Z,17.60
2022-07-27T01:34:35.134Z,17.60
2022-07-27T01:37:02.095Z,17.60
2022-07-27T01:39:30.844Z,17.60
2022-07-27T01:41:58.518Z,17.50
2022-07-27T01:44:25.463Z,17.50
2022-07-27T01:46:52.538Z,17.50
2022-07-27T01:49:19.810Z,17.40
2022-07-27T01:51:46.759Z,17.40
2022-07-27T01:54:13.934Z,17.40
2022-07-27T01:56:42.226Z,17.30
2022-07-27T01:59:16.621Z,17.30
2022-07-27T02:01:44.133Z,17.30
2022-07-27T02:04:11.317Z,17.30
2022-07-27T02:06:38.281Z,17.30
2022-07-27T02:09:05.177Z,17.20
2022-07-27T02:11:50.517Z,17.30
2022-07-27T02:14:18.731Z,17.30
2022-07-27T02:16:48.569Z,17.30
2022-07-27T02:19:18.308Z,17.20
2022-07-27T02:21:45.446Z,17.10
2022-07-27T02:24:12.457Z,16.90
2022-07-27T02:26:39.761Z,16.80
2022-07-27T02:29:06.891Z,16.80
2022-07-27T02:31:35.387Z,16.70
2022-07-27T02:34:02.521Z,16.60
2022-07-27T02:36:29.622Z,16.50
2022-07-27T02:38:57.235Z,16.50
2022-07-27T02:41:24.419Z,16.50
2022-07-27T02:43:51.736Z,16.50
2022-07-27T02:46:45.861Z,16.50
2022-07-27T02:49:13.312Z,16.50
2022-07-27T02:51:40.530Z,16.50
2022-07-27T02:54:08.220Z,16.40
2022-07-27T02:56:35.173Z,16.30
2022-07-27T02:59:02.494Z,16.30
2022-07-27T03:01:29.477Z,16.30
2022-07-27T03:03:57.865Z,16.30
2022-07-27T03:06:24.940Z,16.30
2022-07-27T03:08:51.830Z,16.40
2022-07-27T03:11:18.801Z,16.40
2022-07-27T03:13:45.781Z,16.50
2022-07-27T03:16:12.886Z,16.40
2022-07-27T03:18:39.960Z,16.50
2022-07-27T03:21:08.953Z,16.40
2022-07-27T03:25:29.167Z,16.50
2022-07-27T03:28:00.479Z,16.50
2022-07-27T03:30:30.951Z,16.60
2022-07-27T03:32:58.310Z,16.70
2022-07-27T03:35:25.521Z,16.70
2022-07-27T03:37:52.604Z,16.70
2022-07-27T03:40:19.858Z,16.70
2022-07-27T03:42:48.491Z,16.60
2022-07-27T03:45:15.579Z,16.50
2022-07-27T03:47:42.543Z,16.40
2022-07-27T03:50:09.622Z,16.30
2022-07-27T03:52:36.584Z,16.20
2022-07-27T03:55:04.346Z,16.10
2022-07-27T03:57:31.316Z,16.20
2022-07-27T03:59:59.708Z,16.20
2022-07-27T04:02:26.757Z,16.20
2022-07-27T04:04:54.267Z,16.20
2022-07-27T04:07:21.129Z,16.20
2022-07-27T04:09:48.168Z,16.10
2022-07-27T04:12:15.200Z,16.20
2022-07-27T04:14:44.344Z,16.20
2022-07-27T04:17:13.035Z,16.10
2022-07-27T04:19:59.867Z,15.90
2022-07-27T04:22:27.384Z,15.60
2022-07-27T04:24:54.355Z,15.80
2022-07-27T04:27:21.279Z,15.80
2022-07-27T04:29:48.252Z,15.90
2022-07-27T04:32:16.556Z,16.00
2022-07-27T04:34:43.615Z,16.10
2022-07-27T04:37:10.911Z,16.20
2022-07-27T04:39:37.826Z,16.30
2022-07-27T04:42:04.929Z,16.40
2022-07-27T04:44:32.027Z,16.60
2022-07-27T04:46:58.921Z,16.50
2022-07-27T04:49:27.365Z,16.60
2022-07-27T04:51:54.379Z,16.60
2022-07-27T04:54:21.348Z,16.70
2022-07-27T04:56:48.377Z,16.80
2022-07-27T04:59:15.522Z,16.90
2022-07-27T05:01:42.692Z,17.10
2022-07-27T05:04:09.835Z,17.40
2022-07-27T05:06:38.174Z,17.30
2022-07-27T05:09:05.128Z,17.20
2022-07-27T05:11:32.057Z,17.70
2022-07-27T05:13:59.199Z,18.70
2022-07-27T05:16:28.863Z,19.20
2022-07-27T05:18:56.302Z,19.50
2022-07-27T05:21:23.226Z,19.70
2022-07-27T05:23:51.546Z,19.80
2022-07-27T05:26:18.601Z,19.60
2022-07-27T05:28:45.703Z,19.70
2022-07-27T05:31:12.646Z,19.80
2022-07-27T05:33:39.608Z,20.10
2022-07-27T05:36:07.762Z,20.90
2022-07-27T05:38:39.190Z,22.70
2022-07-27T05:41:08.020Z,25.00
2022-07-27T05:43:34.972Z,26.90
2022-07-27T05:46:02.212Z,27.50
2022-07-27T05:48:29.652Z,27.20
2022-07-27T05:50:56.704Z,26.60
2022-07-27T05:53:23.869Z,26.00
2022-07-27T05:55:59.242Z,25.40
2022-07-27T05:58:29.558Z,25.10
2022-07-27T06:00:57.209Z,24.80
2022-07-27T06:03:24.608Z,24.60
2022-07-27T06:05:51.974Z,24.50
2022-07-27T06:08:19.003Z,24.30
2022-07-27T06:10:46.091Z,23.90
2022-07-27T06:13:13.864Z,23.80
2022-07-27T06:15:42.237Z,24.00
2022-07-27T06:18:17.987Z,24.30
2022-07-27T06:20:45.728Z,24.50
2022-07-27T06:23:12.843Z,24.70
2022-07-27T06:25:40.373Z,25.00
2022-07-27T06:28:07.272Z,25.40
2022-07-27T06:30:34.447Z,25.80
2022-07-27T06:33:06.582Z,26.10
2022-07-27T06:35:34.042Z,26.60
2022-07-27T06:38:01.112Z,27.10
2022-07-27T06:40:29.882Z,27.40
2022-07-27T06:42:58.221Z,27.70
2022-07-27T06:45:25.296Z,27.00
2022-07-27T06:47:52.333Z,27.30
2022-07-27T06:50:20.989Z,27.60
2022-07-27T06:52:48.384Z,27.20
2022-07-27T06:55:15.372Z,27.30
2022-07-27T06:57:43.011Z,27.40
2022-07-27T07:00:11.438Z,27.50
2022-07-27T07:02:39.669Z,27.30
2022-07-27T07:05:06.804Z,27.70
2022-07-27T07:07:35.409Z,28.10
2022-07-27T07:10:02.859Z,28.30
2022-07-27T07:12:30.113Z,26.80
2022-07-27T07:14:59.421Z,26.60
2022-07-27T07:17:27.381Z,25.40
2022-07-27T07:19:54.322Z,25.70
2022-07-27T07:22:21.282Z,26.70
2022-07-27T07:24:50.136Z,27.20
2022-07-27T07:27:19.231Z,27.70
2022-07-27T07:29:46.155Z,28.60
2022-07-27T07:32:13.039Z,28.90
2022-07-27T07:34:41.841Z,29.80
2022-07-27T07:37:08.829Z,31.70
2022-07-27T07:39:35.834Z,33.80
2022-07-27T07:42:04.185Z,36.40
2022-07-27T07:44:31.332Z,39.00
2022-07-27T07:46:58.423Z,40.50
2022-07-27T07:49:39.062Z,41.70
2022-07-27T07:52:07.849Z,42.30
2022-07-27T07:54:34.928Z,42.90
2022-07-27T07:57:01.924Z,43.10
2022-07-27T07:59:30.257Z,43.70
2022-07-27T08:01:57.288Z,44.10
2022-07-27T08:04:24.371Z,44.30
2022-07-27T08:06:51.238Z,43.70
2022-07-27T08:09:18.227Z,43.40
2022-07-27T08:11:45.163Z,43.30
2022-07-27T08:14:12.283Z,42.50
2022-07-27T08:16:41.233Z,42.40
2022-07-27T08:19:09.500Z,41.80
2022-07-27T08:21:36.623Z,38.70
2022-07-27T08:24:03.870Z,36.50
2022-07-27T08:26:30.814Z,35.70
2022-07-27T08:28:59.285Z,33.70
2022-07-27T08:31:52.594Z,34.40
2022-07-27T08:34:15.011Z,35.30
2022-07-27T08:36:42.316Z,34.80
2022-07-27T08:39:09.634Z,32.90
2022-07-27T08:41:38.697Z,31.70
2022-07-27T08:44:12.883Z,31.90
2022-07-27T08:46:42.717Z,31.50
2022-07-27T08:49:10.075Z,30.70
2022-07-27T08:51:40.824Z,29.60
2022-07-27T08:54:09.091Z,29.40
2022-07-27T08:56:36.118Z,29.20
2022-07-27T08:59:03.425Z,29.00
2022-07-27T09:01:31.677Z,29.40
2022-07-27T09:03:58.763Z,28.50
2022-07-27T09:06:54.150Z,28.40
2022-07-27T09:09:21.974Z,28.90
2022-07-27T09:12:02.788Z,29.60
2022-07-27T09:14:30.551Z,30.00
2022-07-27T09:19:05.971Z,30.50
2022-07-27T09:21:34.064Z,31.30
2022-07-27T09:24:17.867Z,31.70
2022-07-27T09:27:02.992Z,32.00
2022-07-27T09:29:33.700Z,31.20
2022-07-27T09:32:00.753Z,31.40
2022-07-27T09:34:30.803Z,30.80
2022-07-27T09:36:59.614Z,30.40
2022-07-27T09:39:29.105Z,30.00
2022-07-27T09:42:00.012Z,30.40
2022-07-27T09:44:33.218Z,30.90
2022-07-27T09:47:21.047Z,31.40
2022-07-27T09:49:49.760Z,31.80
2022-07-27T09:52:23.571Z,32.10
2022-07-27T09:54:50.867Z,33.60
2022-07-27T09:57:18.566Z,34.60
2022-07-27T09:59:45.903Z,35.00
2022-07-27T10:02:13.982Z,35.60
2022-07-27T10:04:41.476Z,35.50
2022-07-27T10:07:13.545Z,35.40
2022-07-27T10:09:41.234Z,36.40
2022-07-27T10:12:08.867Z,34.30
2022-07-27T10:14:36.214Z,34.00
2022-07-27T10:17:03.929Z,33.10
2022-07-27T10:19:34.293Z,32.60
2022-07-27T10:22:01.395Z,33.60
2022-07-27T10:24:34.029Z,35.10
2022-07-27T10:27:18.986Z,35.10
2022-07-27T10:29:47.342Z,34.50
2022-07-27T10:32:24.056Z,33.60
2022-07-27T10:34:51.338Z,33.80
2022-07-27T10:37:25.078Z,34.40
2022-07-27T10:40:15.667Z,33.40
2022-07-27T10:42:43.984Z,33.40
2022-07-27T10:45:12.969Z,34.50
2022-07-27T10:47:42.484Z,33.70
2022-07-27T10:50:32.343Z,34.70
2022-07-27T10:53:08.201Z,35.60
2022-07-27T10:55:58.044Z,35.10
2022-07-27T10:58:46.006Z,36.70
2022-07-27T11:01:14.620Z,37.30
2022-07-27T11:03:49.465Z,37.40
2022-07-27T11:06:34.680Z,37.10
2022-07-27T11:09:59.967Z,36.50
2022-07-27T11:11:58.790Z,37.40
2022-07-27T11:14:30.681Z,37.90
2022-07-27T11:19:52.427Z,38.20
2022-07-27T11:22:37.723Z,38.70
2022-07-27T11:25:13.098Z,38.70
2022-07-27T11:27:48.510Z,39.00
2022-07-27T11:30:22.579Z,38.20
2022-07-27T11:32:49.745Z,35.20
2022-07-27T11:35:20.186Z,35.30
2022-07-27T11:37:59.164Z,37.20
2022-07-27T11:43:33.671Z,38.80
2022-07-27T11:46:16.846Z,37.60
2022-07-27T11:49:08.998Z,36.20
2022-07-27T11:51:43.129Z,34.10
2022-07-27T11:54:12.061Z,32.70
2022-07-27T11:56:43.465Z,32.40
2022-07-27T11:59:15.847Z,33.10
2022-07-27T12:01:50.968Z,34.60
2022-07-27T12:04:24.649Z,35.70
2022-07-27T12:07:05.033Z,37.00
2022-07-27T12:09:38.167Z,37.10
2022-07-27T12:12:14.001Z,35.30
2022-07-27T12:14:46.019Z,36.80
2022-07-27T12:17:30.258Z,37.80
2022-07-27T12:20:00.812Z,38.60
2022-07-27T12:22:31.390Z,38.70
2022-07-27T12:24:59.909Z,39.60
2022-07-27T12:27:28.810Z,39.50
2022-07-27T12:30:07.089Z,40.00
2022-07-27T12:32:37.745Z,40.70
2022-07-27T12:35:25.274Z,40.00
2022-07-27T12:38:00.323Z,39.40
2022-07-27T12:40:28.246Z,37.60
2022-07-27T12:42:57.528Z,36.00
2022-07-27T12:45:32.320Z,33.90
2022-07-27T12:48:06.589Z,31.80
2022-07-27T12:50:33.808Z,29.80
2022-07-27T12:53:00.949Z,28.50
2022-07-27T12:55:28.179Z,28.30
2022-07-27T12:57:56.764Z,28.60
2022-07-27T13:00:33.730Z,28.60
2022-07-27T13:03:02.032Z,28.70
2022-07-27T13:05:29.582Z,28.90
2022-07-27T13:07:56.709Z,28.80
2022-07-27T13:10:23.849Z,29.20
2022-07-27T13:12:51.903Z,29.30
2022-07-27T13:15:20.068Z,29.30
2022-07-27T13:17:49.246Z,29.10
2022-07-27T13:20:17.604Z,29.00
2022-07-27T13:22:45.892Z,28.50
2022-07-27T13:25:16.146Z,28.10
2022-07-27T13:27:44.457Z,27.90
2022-07-27T13:30:13.665Z,27.10
2022-07-27T13:32:41.300Z,26.90
2022-07-27T13:35:12.430Z,27.00
2022-07-27T13:37:40.127Z,27.00
2022-07-27T13:40:09.166Z,27.20
2022-07-27T13:42:37.336Z,28.00
2022-07-27T13:45:11.198Z,28.20
2022-07-27T13:47:39.932Z,28.80
2022-07-27T13:50:15.093Z,28.30
2022-07-27T13:52:46.593Z,27.70
2022-07-27T13:55:14.606Z,27.60
2022-07-27T13:57:41.946Z,27.40
2022-07-27T14:00:10.438Z,27.20
2022-07-27T14:02:37.729Z,27.70
2022-07-27T14:05:06.098Z,27.70
2022-07-27T14:07:34.036Z,27.40
2022-07-27T14:10:21.254Z,26.70
2022-07-27T14:12:48.402Z,26.10
2022-07-27T14:15:15.513Z,26.10
2022-07-27T14:17:42.669Z,25.80
2022-07-27T14:20:11.411Z,25.40
2022-07-27T14:22:38.717Z,25.90
2022-07-27T14:25:08.054Z,26.20
2022-07-27T14:27:36.898Z,27.40
2022-07-27T14:30:07.545Z,28.40
2022-07-27T14:32:37.688Z,29.70
2022-07-27T14:35:06.293Z,30.90
2022-07-27T14:37:36.088Z,31.70
2022-07-27T14:40:06.104Z,31.60
2022-07-27T14:42:34.633Z,32.60
2022-07-27T14:45:01.832Z,33.30
2022-07-27T14:47:29.059Z,33.80
2022-07-27T14:49:56.285Z,34.10
2022-07-27T14:52:23.654Z,33.30
2022-07-27T14:54:50.830Z,33.40
2022-07-27T14:57:18.223Z,33.20
2022-07-27T14:59:46.639Z,32.80
2022-07-27T15:02:13.851Z,33.30
2022-07-27T15:04:41.122Z,31.80
2022-07-27T15:07:08.182Z,28.90
2022-07-27T15:09:35.317Z,27.90
2022-07-27T15:12:02.579Z,27.40
2022-07-27T15:14:29.991Z,27.00
2022-07-27T15:16:58.710Z,26.80
2022-07-27T15:19:26.238Z,26.20
2022-07-27T15:21:53.584Z,26.50
2022-07-27T15:24:20.688Z,26.90
2022-07-27T15:26:47.809Z,27.00
2022-07-27T15:29:15.720Z,27.10
2022-07-27T15:31:43.515Z,27.10
2022-07-27T15:34:12.023Z,27.10
2022-07-27T15:36:45.885Z,27.40
2022-07-27T15:39:15.282Z,27.10
2022-07-27T15:41:42.796Z,27.30
2022-07-27T15:44:09.929Z,27.40
2022-07-27T15:46:37.114Z,27.30
2022-07-27T15:49:04.362Z,27.00
2022-07-27T15:51:32.929Z,26.70
2022-07-27T15:54:00.100Z,27.00
2022-07-27T15:56:26.979Z,26.20
2022-07-27T15:58:54.286Z,25.50
2022-07-27T16:01:21.837Z,25.20
2022-07-27T16:03:49.218Z,25.40
2022-07-27T16:06:19.097Z,25.30
2022-07-27T16:08:48.133Z,25.50
2022-07-27T16:11:15.314Z,25.40
2022-07-27T16:13:42.505Z,25.10
2022-07-27T16:16:25.261Z,25.10
2022-07-27T16:18:53.565Z,25.30
2022-07-27T16:21:22.598Z,25.30
2022-07-27T16:23:52.978Z,25.50
2022-07-27T16:26:21.581Z,25.20
2022-07-27T16:28:50.750Z,25.30
2022-07-27T16:31:20.387Z,25.00
2022-07-27T16:33:49.291Z,25.20
2022-07-27T16:36:22.986Z,25.10
2022-07-27T16:38:52.161Z,25.00
2022-07-27T16:41:19.846Z,24.80
2022-07-27T16:43:47.251Z,24.30
2022-07-27T16:46:15.030Z,24.80
2022-07-27T16:48:43.706Z,24.60
2022-07-27T16:51:11.766Z,24.10
2022-07-27T16:53:38.885Z,24.40
2022-07-27T16:56:08.957Z,24.40
2022-07-27T16:58:36.469Z,24.60
2022-07-27T17:01:04.811Z,24.40
2022-07-27T17:03:32.219Z,24.90
2022-07-27T17:06:03.684Z,24.80
2022-07-27T17:08:33.050Z,24.40
2022-07-27T17:11:02.279Z,24.50
2022-07-27T17:13:34.298Z,24.00
2022-07-27T17:16:02.254Z,23.70
2022-07-27T17:18:29.765Z,23.20
2022-07-27T17:20:56.951Z,23.30
2022-07-27T17:23:24.127Z,22.80
2022-07-27T17:25:51.466Z,22.90
2022-07-27T17:28:19.413Z,22.40
2022-07-27T17:30:48.172Z,22.60
2022-07-27T17:33:15.582Z,22.60
2022-07-27T17:35:42.729Z,22.50
2022-07-27T17:38:13.912Z,22.20
2022-07-27T17:40:41.049Z,22.10
2022-07-27T17:43:08.065Z,22.20
2022-07-27T17:45:35.131Z,21.90
2022-07-27T17:48:04.075Z,22.00
2022-07-27T17:50:31.249Z,22.30
2022-07-27T17:52:59.214Z,22.30
2022-07-27T17:55:26.397Z,22.30
2022-07-27T17:57:53.701Z,22.10
2022-07-27T18:00:21.187Z,22.30
2022-07-27T18:02:48.362Z,22.20
2022-07-27T18:05:17.150Z,22.10
2022-07-27T18:07:44.467Z,22.00
2022-07-27T18:10:11.720Z,21.60
2022-07-27T18:12:38.761Z,21.70
2022-07-27T18:15:25.046Z,21.90
2022-07-27T18:17:52.030Z,22.20
2022-07-27T18:20:20.566Z,22.10
2022-07-27T18:22:48.018Z,22.30
2022-07-27T18:25:15.200Z,22.50
2022-07-27T18:27:42.966Z,22.10
2022-07-27T18:30:12.077Z,21.90
2022-07-27T18:32:39.450Z,21.50
2022-07-27T18:35:08.267Z,21.60
2022-07-27T18:37:37.014Z,21.50
2022-07-27T18:40:05.321Z,21.20
2022-07-27T18:42:32.455Z,21.30
2022-07-27T18:44:59.569Z,21.60
2022-07-27T18:47:26.985Z,21.70
2022-07-27T18:49:54.274Z,21.90
2022-07-27T18:52:21.364Z,22.10
2022-07-27T18:54:49.868Z,22.10
2022-07-27T18:57:17.685Z,21.80
2022-07-27T18:59:47.311Z,21.60
2022-07-27T19:02:14.890Z,21.70
2022-07-27T19:04:42.578Z,21.80
2022-07-27T19:07:10.169Z,21.90
2022-07-27T19:09:37.417Z,21.90
2022-07-27T19:12:09.672Z,21.90
2022-07-27T19:14:37.556Z,22.10
2022-07-27T19:17:04.908Z,21.60
2022-07-27T19:19:32.351Z,21.40
2022-07-27T19:22:00.262Z,21.40
2022-07-27T19:24:27.417Z,21.50
2022-07-27T19:26:54.624Z,21.50
2022-07-27T19:29:23.215Z,21.40
2022-07-27T19:31:50.662Z,21.20
2022-07-27T19:34:17.966Z,21.00
2022-07-27T19:36:45.203Z,21.00
2022-07-27T19:39:13.102Z,20.90
2022-07-27T19:41:40.841Z,20.70
2022-07-27T19:44:09.139Z,20.40
2022-07-27T19:46:38.107Z,20.50
2022-07-27T19:49:05.337Z,20.20
2022-07-27T19:51:32.665Z,20.10
2022-07-27T19:53:59.823Z,20.10
2022-07-27T19:56:26.950Z,20.00
2022-07-27T19:58:54.080Z,20.10
2022-07-27T20:01:21.141Z,20.10
2022-07-27T20:03:54.323Z,20.10
2022-07-27T20:06:22.945Z,19.80
2022-07-27T20:08:50.058Z,19.70
2022-07-27T20:11:17.321Z,19.50
2022-07-27T20:13:44.563Z,19.40
2022-07-27T20:16:11.640Z,19.60
2022-07-27T20:18:38.848Z,19.80
2022-07-27T20:21:22.632Z,20.10
2022-07-27T20:23:50.738Z,20.10
2022-07-27T20:26:17.887Z,19.70
2022-07-27T20:28:45.473Z,19.60
2022-07-27T20:31:12.806Z,19.50
2022-07-27T20:33:39.974Z,19.50
2022-07-27T20:36:08.809Z,19.40
2022-07-27T20:38:35.859Z,19.00
2022-07-27T20:41:03.059Z,18.90
2022-07-27T20:43:31.052Z,18.90
2022-07-27T20:45:58.682Z,18.80
2022-07-27T20:48:25.819Z,18.50
2022-07-27T20:50:53.444Z,18.60
2022-07-27T20:53:22.144Z,18.90
2022-07-27T20:55:49.244Z,18.90
2022-07-27T20:58:16.377Z,19.10
2022-07-27T21:00:43.736Z,19.20
2022-07-27T21:03:10.795Z,19.30
2022-07-27T21:05:37.722Z,19.20
2022-07-27T21:08:04.931Z,19.30
2022-07-27T21:10:33.923Z,19.40
2022-07-27T21:13:01.001Z,19.60
2022-07-27T21:15:34.168Z,19.70
2022-07-27T21:18:01.701Z,19.60
2022-07-27T21:20:28.959Z,19.50
2022-07-27T21:23:14.650Z,19.50
2022-07-27T21:25:43.346Z,19.30
2022-07-27T21:28:15.804Z,19.30
2022-07-27T21:30:45.766Z,19.50
2022-07-27T21:33:13.139Z,19.40
2022-07-27T21:35:40.368Z,19.00
2022-07-27T21:38:07.517Z,19.10
2022-07-27T21:40:34.532Z,19.20
2022-07-27T21:43:03.001Z,18.90
2022-07-27T21:45:30.297Z,19.00
2022-07-27T21:47:57.469Z,19.00
2022-07-27T21:50:24.607Z,18.60
2022-07-27T21:52:52.988Z,18.30
2022-07-27T21:55:23.262Z,18.00
2022-07-27T21:57:50.521Z,18.20
2022-07-27T22:00:23.889Z,18.40
2022-07-27T22:02:51.388Z,18.30
2022-07-27T22:05:18.732Z,18.40
2022-07-27T22:07:45.864Z,18.40
2022-07-27T22:10:13.068Z,17.80
2022-07-27T22:12:40.324Z,17.90
2022-07-27T22:15:07.885Z,17.70
2022-07-27T22:17:36.284Z,17.60
2022-07-27T22:20:17.624Z,17.80
2022-07-27T22:22:44.874Z,17.90
2022-07-27T22:25:12.177Z,18.00
2022-07-27T22:27:39.391Z,18.20
2022-07-27T22:30:08.044Z,18.30
2022-07-27T22:32:36.673Z,18.30
2022-07-27T22:35:04.348Z,18.40
2022-07-27T22:37:31.461Z,18.30
2022-07-27T22:39:59.157Z,18.40
2022-07-27T22:42:26.359Z,18.20
2022-07-27T22:44:53.548Z,18.30
2022-07-27T22:47:21.139Z,18.30
2022-07-27T22:49:49.888Z,18.30
2022-07-27T22:52:17.060Z,18.40
2022-07-27T22:54:44.342Z,18.50
2022-07-27T22:57:11.450Z,18.50
2022-07-27T22:59:38.777Z,18.60
2022-07-27T23:02:06.354Z,18.30
2022-07-27T23:04:33.622Z,17.90
2022-07-27T23:07:02.148Z,17.80
2022-07-27T23:09:29.193Z,17.70
2022-07-27T23:11:56.365Z,17.40
2022-07-27T23:14:25.871Z,17.50
2022-07-27T23:16:53.131Z,17.20
2022-07-27T23:19:21.077Z,17.50
2022-07-27T23:21:49.206Z,17.70
2022-07-27T23:24:28.684Z,17.70
2022-07-27T23:26:56.674Z,17.60
2022-07-27T23:29:23.867Z,17.70
2022-07-27T23:31:51.058Z,17.60
2022-07-27T23:34:18.237Z,17.50
2022-07-27T23:36:45.565Z,17.80
2022-07-27T23:39:12.648Z,17.80
2022-07-27T23:41:41.096Z,17.80
2022-07-27T23:44:11.339Z,17.70
2022-07-27T23:46:38.527Z,17.40
2022-07-27T23:49:05.591Z,17.40
2022-07-27T23:51:32.583Z,17.50
2022-07-27T23:53:59.658Z,17.70
2022-07-27T23:56:26.721Z,17.60
2022-07-27T23:58:55.409Z,17.50
